sim
Sign-in with your pilot id or email,
or register
Callsign
Passwort

Schedule Details

Flight Number: DLH2319
Departure: Luxembourg Findel Airport (ELLX) at 12:10
Arrival: Munich Airport (EDDM) at 13:15
Route: Lufthansa Passenger Schedule. Enter filed route here before submitting Pirep.

Weather Information
Getting current METAR information for ELLX 240150Z AUTO 23011KT 9999 FEW006/// BKN010/// OVC014/// 15/14 Q1004 NOSIG
Getting current METAR information for EDDM 240150Z 22002KT CAVOK 10/10 Q1009 NOSIG

Schedule Frequency

Route Map